Time;durP1;ratioP1;P1;durP2;ratioP2;P2;SDS_P1;SDS_P2;PMS_P1;PMS_P2;Temp;Humidity;BMP_temperature;BMP_pressure;BME280_temperature;BME280_humidity;BME280_pressure;Samples;Min_cycle;Max_cycle;Signal;HPM_P1;HPM_P2
2022/08/24 00:01:52;;;;;;;5.57;4.03;;;;;;;;;;5056968;28;20159;-69
2022/08/24 00:04:17;;;;;;;5.53;4.38;;;;;;;;;;5072024;28;20135;-68
2022/08/24 00:06:43;;;;;;;4.43;4.03;;;;;;;;;;5072879;28;20052;-68
2022/08/24 00:09:08;;;;;;;4.50;4.10;;;;;;;;;;5072533;28;20094;-68
2022/08/24 00:11:34;;;;;;;9.32;5.18;;;;;;;;;;5067203;28;20039;-69
2022/08/24 00:14:00;;;;;;;5.03;3.97;;;;;;;;;;5060964;28;20044;-69
2022/08/24 00:16:25;;;;;;;4.70;3.75;;;;;;;;;;5061322;28;20507;-68
2022/08/24 00:18:51;;;;;;;4.78;4.20;;;;;;;;;;5052316;28;20120;-68
2022/08/24 00:21:17;;;;;;;7.22;4.10;;;;;;;;;;5052103;28;20041;-71
2022/08/24 00:23:44;;;;;;;5.50;4.28;;;;;;;;;;5057799;28;20547;-68
2022/08/24 00:26:09;;;;;;;4.80;4.38;;;;;;;;;;5072353;28;20127;-68
2022/08/24 00:28:35;;;;;;;6.63;4.03;;;;;;;;;;5072218;28;20135;-68
2022/08/24 00:31:01;;;;;;;9.02;4.30;;;;;;;;;;5064429;28;20052;-67
2022/08/24 00:33:27;;;;;;;5.60;4.38;;;;;;;;;;5050998;28;20049;-68
2022/08/24 00:35:52;;;;;;;5.78;4.40;;;;;;;;;;5058290;28;20051;-68
2022/08/24 00:38:18;;;;;;;5.32;4.82;;;;;;;;;;5072038;28;20135;-68
2022/08/24 00:40:46;;;;;;;7.82;4.72;;;;;;;;;;5072200;28;20074;-68
2022/08/24 00:43:12;;;;;;;4.72;4.22;;;;;;;;;;5072282;28;20102;-68
2022/08/24 00:45:44;;;;;;;6.70;4.60;;;;;;;;;;5058060;28;20052;-68
2022/08/24 00:48:22;;;;;;;5.22;4.65;;;;;;;;;;5060595;28;20048;-67
2022/08/24 00:50:54;;;;;;;4.97;4.45;;;;;;;;;;5071989;28;20037;-68
2022/08/24 00:53:40;;;;;;;7.40;4.78;;;;;;;;;;5071458;28;20072;-68
2022/08/24 00:56:13;;;;;;;5.97;5.18;;;;;;;;;;5060296;28;20053;-68
2022/08/24 00:58:45;;;;;;;7.65;4.88;;;;;;;;;;5065483;28;20055;-68
2022/08/24 01:01:13;;;;;;;6.32;4.95;;;;;;;;;;5062914;28;20041;-69
2022/08/24 01:03:39;;;;;;;4.72;4.30;;;;;;;;;;5049744;28;20123;-67
2022/08/24 01:06:05;;;;;;;6.22;4.72;;;;;;;;;;5050690;28;20053;-68
2022/08/24 01:08:30;;;;;;;5.72;5.05;;;;;;;;;;5062011;28;20048;-68
2022/08/24 01:11:05;;;;;;;7.53;5.40;;;;;;;;;;5068896;28;20040;-68
2022/08/24 01:13:33;;;;;;;6.28;4.88;;;;;;;;;;5071334;28;20036;-68
2022/08/24 01:16:02;;;;;;;5.70;5.05;;;;;;;;;;5062642;28;20049;-68
2022/08/24 01:21:32;;;;;;;5.85;5.20;;;;;;;;;;5070170;28;20062;-68
2022/08/24 01:24:01;;;;;;;6.63;5.38;;;;;;;;;;5054204;28;20146;-68
2022/08/24 01:26:30;;;;;;;7.43;5.40;;;;;;;;;;5071528;28;20040;-68
2022/08/24 01:29:01;;;;;;;6.40;5.13;;;;;;;;;;5063336;28;20426;-68
2022/08/24 01:31:26;;;;;;;6.70;5.38;;;;;;;;;;5045187;28;20635;-67
2022/08/24 01:33:54;;;;;;;12.65;5.97;;;;;;;;;;5070036;28;20044;-68
2022/08/24 01:36:44;;;;;;;7.93;5.57;;;;;;;;;;5063597;28;20048;-68
2022/08/24 01:39:20;;;;;;;9.02;5.97;;;;;;;;;;5053011;28;20057;-68
2022/08/24 01:41:47;;;;;;;6.20;5.60;;;;;;;;;;5064059;28;20063;-70
2022/08/24 01:44:14;;;;;;;7.70;5.93;;;;;;;;;;5069727;28;20052;-68
2022/08/24 01:46:48;;;;;;;6.60;5.50;;;;;;;;;;5056430;28;20044;-71
2022/08/24 01:49:15;;;;;;;9.32;5.40;;;;;;;;;;5049473;28;20526;-69
2022/08/24 01:51:42;;;;;;;11.68;5.85;;;;;;;;;;5049300;28;20412;-68
2022/08/24 01:54:08;;;;;;;5.85;5.15;;;;;;;;;;5067452;28;20523;-68
2022/08/24 01:56:35;;;;;;;6.05;5.45;;;;;;;;;;5069668;28;20052;-68
2022/08/24 01:59:01;;;;;;;6.47;5.88;;;;;;;;;;5069323;28;20052;-68
2022/08/24 02:01:29;;;;;;;13.18;6.25;;;;;;;;;;5039550;28;20407;-68
2022/08/24 02:03:58;;;;;;;6.72;5.80;;;;;;;;;;5049909;28;20111;-68
2022/08/24 02:06:26;;;;;;;9.15;5.75;;;;;;;;;;5045747;28;20084;-68
2022/08/24 02:08:52;;;;;;;11.15;5.50;;;;;;;;;;5029367;28;20060;-69
2022/08/24 02:11:17;;;;;;;6.13;5.30;;;;;;;;;;5028768;28;20450;-68
2022/08/24 02:13:43;;;;;;;8.50;5.40;;;;;;;;;;5043122;28;20131;-69
2022/08/24 02:16:09;;;;;;;8.63;5.70;;;;;;;;;;5058024;28;20438;-70
2022/08/24 02:18:36;;;;;;;5.88;5.28;;;;;;;;;;5049266;28;20124;-70
2022/08/24 02:21:02;;;;;;;6.53;5.28;;;;;;;;;;5048855;28;20044;-68
2022/08/24 02:23:28;;;;;;;6.95;6.22;;;;;;;;;;5047562;28;20045;-68
2022/08/24 02:25:55;;;;;;;7.25;6.55;;;;;;;;;;5056332;28;20041;-68
2022/08/24 02:28:20;;;;;;;10.57;8.40;;;;;;;;;;5068849;28;20052;-70
2022/08/24 02:30:46;;;;;;;11.77;7.53;;;;;;;;;;5062688;28;20041;-68
2022/08/24 02:33:12;;;;;;;8.30;7.50;;;;;;;;;;5048723;28;20459;-67
2022/08/24 02:35:40;;;;;;;7.95;7.15;;;;;;;;;;5047012;28;20052;-67
2022/08/24 02:38:08;;;;;;;9.13;7.18;;;;;;;;;;5048186;28;20123;-68
2022/08/24 02:40:35;;;;;;;7.80;7.00;;;;;;;;;;5048612;28;20068;-68
2022/08/24 02:43:01;;;;;;;11.30;7.30;;;;;;;;;;5048426;28;20041;-67
2022/08/24 02:45:27;;;;;;;10.63;8.40;;;;;;;;;;5046959;28;20153;-68
2022/08/24 02:47:53;;;;;;;9.90;7.78;;;;;;;;;;5055942;28;20094;-68
2022/08/24 02:50:21;;;;;;;8.95;6.93;;;;;;;;;;5068265;28;20136;-67
2022/08/24 02:52:47;;;;;;;11.15;7.18;;;;;;;;;;5068601;28;20123;-68
2022/08/24 02:55:16;;;;;;;10.48;7.20;;;;;;;;;;5068548;28;20045;-68
2022/08/24 02:57:42;;;;;;;9.77;6.72;;;;;;;;;;5061162;28;20148;-68
2022/08/24 03:00:11;;;;;;;6.88;6.00;;;;;;;;;;5067593;28;20473;-68
2022/08/24 03:02:44;;;;;;;7.30;6.15;;;;;;;;;;5048544;28;20133;-68
2022/08/24 03:05:10;;;;;;;6.65;5.95;;;;;;;;;;5048365;28;20068;-68
2022/08/24 03:07:36;;;;;;;9.35;6.50;;;;;;;;;;5046728;28;20036;-66
2022/08/24 03:10:05;;;;;;;8.55;6.18;;;;;;;;;;5064827;28;20036;-67
2022/08/24 03:12:30;;;;;;;10.98;6.93;;;;;;;;;;5068324;28;20414;-67
2022/08/24 03:14:56;;;;;;;10.05;6.15;;;;;;;;;;5051480;28;20498;-67
2022/08/24 03:17:23;;;;;;;7.57;6.78;;;;;;;;;;5047615;28;20049;-67
2022/08/24 03:19:49;;;;;;;8.60;7.35;;;;;;;;;;5046873;28;20094;-68
2022/08/24 03:22:15;;;;;;;10.57;7.18;;;;;;;;;;5067868;28;20133;-69
2022/08/24 03:24:40;;;;;;;9.98;8.35;;;;;;;;;;5067887;28;20036;-67
2022/08/24 03:27:06;;;;;;;10.65;8.25;;;;;;;;;;5069407;28;20105;-67
2022/08/24 03:29:33;;;;;;;9.60;8.32;;;;;;;;;;5062666;28;20041;-66
2022/08/24 03:32:00;;;;;;;14.45;8.57;;;;;;;;;;5047475;28;20041;-67
2022/08/24 03:34:25;;;;;;;10.68;7.90;;;;;;;;;;5068041;28;20120;-69
2022/08/24 03:36:50;;;;;;;9.93;8.52;;;;;;;;;;5053617;28;20045;-67
2022/08/24 03:39:17;;;;;;;12.70;9.60;;;;;;;;;;5038152;28;20056;-67
2022/08/24 03:41:43;;;;;;;11.35;10.00;;;;;;;;;;5043045;28;20052;-67
2022/08/24 03:44:08;;;;;;;11.95;8.05;;;;;;;;;;5069072;28;20040;-68
2022/08/24 03:46:36;;;;;;;9.23;8.13;;;;;;;;;;5048709;28;20565;-67
2022/08/24 03:49:04;;;;;;;9.57;8.15;;;;;;;;;;5035702;28;20045;-68
2022/08/24 03:51:29;;;;;;;13.70;8.15;;;;;;;;;;5062361;28;20076;-67
2022/08/24 03:53:57;;;;;;;14.75;7.93;;;;;;;;;;5063526;28;20051;-68
2022/08/24 03:56:26;;;;;;;9.43;7.35;;;;;;;;;;5027869;28;20045;-67
2022/08/24 03:58:52;;;;;;;7.13;6.10;;;;;;;;;;5027826;28;20042;-67
2022/08/24 04:01:18;;;;;;;10.15;6.47;;;;;;;;;;5043974;28;20068;-68
2022/08/24 04:03:46;;;;;;;6.82;6.13;;;;;;;;;;5046693;28;20073;-67
2022/08/24 04:06:14;;;;;;;5.72;5.20;;;;;;;;;;5065581;28;20060;-68
2022/08/24 04:08:41;;;;;;;7.07;5.68;;;;;;;;;;5067632;28;20048;-67
2022/08/24 04:11:28;;;;;;;6.80;6.10;;;;;;;;;;5067317;28;20517;-67
2022/08/24 04:13:55;;;;;;;8.50;6.60;;;;;;;;;;5027376;28;20041;-67
2022/08/24 04:16:22;;;;;;;10.85;6.65;;;;;;;;;;5056174;28;20040;-67
2022/08/24 04:18:58;;;;;;;9.75;5.78;;;;;;;;;;5047456;28;20057;-69
2022/08/24 04:21:27;;;;;;;6.80;5.55;;;;;;;;;;5048190;28;20519;-67
2022/08/24 04:23:54;;;;;;;7.35;6.13;;;;;;;;;;5047472;28;20534;-69
2022/08/24 04:26:22;;;;;;;8.85;6.35;;;;;;;;;;5049237;28;20078;-68
2022/08/24 04:28:47;;;;;;;7.65;6.07;;;;;;;;;;5068056;28;20182;-69
2022/08/24 04:31:17;;;;;;;7.03;5.85;;;;;;;;;;5060984;28;20131;-68
2022/08/24 04:33:48;;;;;;;11.00;5.82;;;;;;;;;;5050705;28;20099;-68
2022/08/24 04:36:16;;;;;;;9.52;5.93;;;;;;;;;;5050243;28;20049;-70
2022/08/24 04:38:43;;;;;;;6.95;5.72;;;;;;;;;;5051117;28;20033;-67
2022/08/24 04:41:21;;;;;;;7.65;5.22;;;;;;;;;;5050190;28;20137;-67
2022/08/24 04:43:48;;;;;;;7.80;5.40;;;;;;;;;;5051036;28;20127;-68
2022/08/24 04:46:16;;;;;;;7.55;5.47;;;;;;;;;;5049967;28;20091;-69
2022/08/24 04:48:44;;;;;;;10.48;5.45;;;;;;;;;;5050799;28;20040;-67
2022/08/24 04:51:12;;;;;;;8.98;5.32;;;;;;;;;;5050558;28;20048;-68
2022/08/24 04:53:38;;;;;;;5.70;5.15;;;;;;;;;;5050316;28;20029;-68
2022/08/24 04:56:08;;;;;;;7.85;4.93;;;;;;;;;;5050907;28;20051;-68
2022/08/24 04:58:33;;;;;;;6.03;5.10;;;;;;;;;;5051225;28;20061;-67
2022/08/24 05:00:59;;;;;;;6.03;4.93;;;;;;;;;;5058854;28;20072;-67
2022/08/24 05:03:24;;;;;;;8.73;5.50;;;;;;;;;;5049885;28;20510;-66
2022/08/24 05:05:50;;;;;;;6.32;5.07;;;;;;;;;;5050489;28;20071;-68
2022/08/24 05:08:18;;;;;;;9.32;5.45;;;;;;;;;;5049396;28;20040;-67
2022/08/24 05:10:46;;;;;;;5.93;5.20;;;;;;;;;;5056145;28;20044;-67
2022/08/24 05:13:15;;;;;;;13.80;5.50;;;;;;;;;;5070284;28;20047;-68
2022/08/24 05:15:43;;;;;;;5.32;4.63;;;;;;;;;;5064488;28;20048;-67
2022/08/24 05:18:10;;;;;;;6.00;3.88;;;;;;;;;;5050109;28;20045;-67
2022/08/24 05:20:40;;;;;;;7.18;4.18;;;;;;;;;;5050324;28;20446;-68
2022/08/24 05:23:05;;;;;;;12.60;4.30;;;;;;;;;;5049824;28;20071;-68
2022/08/24 05:25:32;;;;;;;5.53;3.80;;;;;;;;;;5049576;28;20384;-68
2022/08/24 05:27:57;;;;;;;3.80;3.10;;;;;;;;;;5066820;28;20052;-67
2022/08/24 05:30:23;;;;;;;3.65;3.35;;;;;;;;;;5048791;28;20056;-68
2022/08/24 05:32:49;;;;;;;6.40;3.33;;;;;;;;;;5049442;28;20037;-70
2022/08/24 05:35:15;;;;;;;4.25;3.20;;;;;;;;;;5037112;28;20533;-69
2022/08/24 05:37:41;;;;;;;4.10;2.47;;;;;;;;;;5034391;28;20038;-69
2022/08/24 05:40:17;;;;;;;6.15;2.85;;;;;;;;;;5029123;28;20052;-69
2022/08/24 05:42:47;;;;;;;5.10;3.17;;;;;;;;;;5049489;28;20526;-69
2022/08/24 05:45:13;;;;;;;3.45;2.70;;;;;;;;;;5066639;28;20044;-69
2022/08/24 05:47:39;;;;;;;5.13;2.80;;;;;;;;;;5029427;28;20049;-69
2022/08/24 05:50:17;;;;;;;6.57;3.08;;;;;;;;;;5049001;28;20572;-69
2022/08/24 05:52:43;;;;;;;4.78;3.08;;;;;;;;;;5048823;28;20441;-69
2022/08/24 05:55:10;;;;;;;4.93;2.67;;;;;;;;;;5058947;28;20056;-70
2022/08/24 05:57:36;;;;;;;5.35;2.72;;;;;;;;;;5068798;28;20048;-69
2022/08/24 06:00:14;;;;;;;5.90;2.90;;;;;;;;;;5066520;28;20048;-69
2022/08/24 06:02:45;;;;;;;4.07;2.75;;;;;;;;;;5048853;28;20041;-68
2022/08/24 06:05:12;;;;;;;3.85;2.92;;;;;;;;;;5049497;28;20386;-68
2022/08/24 06:07:39;;;;;;;4.53;2.58;;;;;;;;;;5068531;28;20125;-69
2022/08/24 06:10:05;;;;;;;3.13;2.70;;;;;;;;;;5068978;28;20573;-69
2022/08/24 06:12:32;;;;;;;3.63;2.95;;;;;;;;;;5069445;28;20079;-69
2022/08/24 06:14:57;;;;;;;5.03;2.30;;;;;;;;;;5061313;28;20037;-70
2022/08/24 06:17:23;;;;;;;3.05;2.55;;;;;;;;;;5051413;28;20123;-69
2022/08/24 06:19:49;;;;;;;5.70;2.78;;;;;;;;;;5068769;28;20486;-69
2022/08/24 06:22:14;;;;;;;5.53;2.58;;;;;;;;;;5070177;28;20044;-69
2022/08/24 06:27:25;;;;;;;3.53;2.78;;;;;;;;;;5059804;28;20036;-70
2022/08/24 06:29:58;;;;;;;3.97;2.50;;;;;;;;;;5068426;28;20131;-69
2022/08/24 06:32:44;;;;;;;2.45;2.25;;;;;;;;;;5030282;28;20519;-68
2022/08/24 06:35:20;;;;;;;3.70;2.60;;;;;;;;;;5028341;28;20033;-72
2022/08/24 06:37:45;;;;;;;4.45;2.53;;;;;;;;;;5049128;28;20055;-69
2022/08/24 06:40:11;;;;;;;4.57;2.65;;;;;;;;;;5058440;28;20052;-68
2022/08/24 06:42:37;;;;;;;3.45;3.15;;;;;;;;;;5048754;28;20056;-69
2022/08/24 06:45:14;;;;;;;4.85;3.03;;;;;;;;;;5047050;28;20041;-68
2022/08/24 06:47:41;;;;;;;3.60;2.88;;;;;;;;;;5032229;28;20045;-69
2022/08/24 06:50:07;;;;;;;6.43;2.80;;;;;;;;;;5065373;28;20052;-69
2022/08/24 06:52:38;;;;;;;3.42;2.60;;;;;;;;;;5046553;28;20045;-70
2022/08/24 06:55:05;;;;;;;4.03;2.53;;;;;;;;;;5043053;28;20041;-69
2022/08/24 06:57:31;;;;;;;2.75;2.55;;;;;;;;;;5046019;28;20047;-70
2022/08/24 06:59:57;;;;;;;2.75;2.35;;;;;;;;;;5053667;28;20044;-69
2022/08/24 07:02:24;;;;;;;6.82;2.45;;;;;;;;;;5047288;28;20106;-70
2022/08/24 07:04:51;;;;;;;4.28;2.70;;;;;;;;;;5046895;28;20045;-70
2022/08/24 07:07:35;;;;;;;3.95;2.65;;;;;;;;;;5047742;28;20143;-70
2022/08/24 07:10:01;;;;;;;4.32;2.78;;;;;;;;;;5046478;28;20135;-70
2022/08/24 07:12:26;;;;;;;2.88;2.67;;;;;;;;;;5048113;28;20407;-70
2022/08/24 07:14:53;;;;;;;4.05;3.20;;;;;;;;;;5048411;28;20131;-70
2022/08/24 07:17:19;;;;;;;2.90;2.70;;;;;;;;;;5048346;28;20516;-69
2022/08/24 07:19:45;;;;;;;3.78;3.28;;;;;;;;;;5047825;28;20550;-69
2022/08/24 07:22:14;;;;;;;3.38;2.70;;;;;;;;;;5042059;28;20041;-69
2022/08/24 07:24:39;;;;;;;6.38;3.42;;;;;;;;;;5069475;28;20051;-69
2022/08/24 07:27:05;;;;;;;2.80;2.55;;;;;;;;;;5068247;28;20040;-69
2022/08/24 07:29:31;;;;;;;4.53;3.13;;;;;;;;;;5067219;28;20036;-70
2022/08/24 07:31:57;;;;;;;3.10;2.85;;;;;;;;;;5053115;28;20527;-70
2022/08/24 07:34:32;;;;;;;3.03;2.80;;;;;;;;;;5053286;28;20032;-70
2022/08/24 07:36:59;;;;;;;3.40;2.60;;;;;;;;;;5067908;28;20045;-69
2022/08/24 07:39:26;;;;;;;3.30;3.00;;;;;;;;;;5067251;28;20123;-69
2022/08/24 07:41:52;;;;;;;3.17;2.90;;;;;;;;;;5067973;28;20102;-69
2022/08/24 07:44:17;;;;;;;3.15;2.78;;;;;;;;;;5059696;28;20052;-71
2022/08/24 07:46:43;;;;;;;3.92;2.95;;;;;;;;;;5054019;28;20055;-70
2022/08/24 07:49:11;;;;;;;4.20;3.00;;;;;;;;;;5047858;28;20060;-69
2022/08/24 07:51:37;;;;;;;3.42;2.83;;;;;;;;;;5047107;28;20139;-69
2022/08/24 07:54:03;;;;;;;4.63;3.00;;;;;;;;;;5064093;28;20135;-70
2022/08/24 07:56:35;;;;;;;4.20;3.00;;;;;;;;;;5067802;28;20040;-69
2022/08/24 07:59:01;;;;;;;5.68;2.70;;;;;;;;;;5067794;28;20051;-70
2022/08/24 08:01:28;;;;;;;3.30;3.00;;;;;;;;;;5055380;28;20055;-69
2022/08/24 08:03:55;;;;;;;6.80;3.15;;;;;;;;;;5048416;28;20110;-70
2022/08/24 08:06:20;;;;;;;4.53;2.63;;;;;;;;;;5060733;28;20045;-70
2022/08/24 08:08:49;;;;;;;6.75;2.80;;;;;;;;;;5068675;28;20043;-70
2022/08/24 08:11:15;;;;;;;3.85;2.85;;;;;;;;;;5069502;28;20612;-70
2022/08/24 08:13:41;;;;;;;3.35;2.92;;;;;;;;;;5069154;28;20064;-69
2022/08/24 08:16:07;;;;;;;3.85;3.08;;;;;;;;;;5059651;28;20045;-69
2022/08/24 08:18:32;;;;;;;5.05;2.92;;;;;;;;;;5040989;28;20048;-70
2022/08/24 08:21:03;;;;;;;5.05;3.17;;;;;;;;;;5049566;28;20041;-69
2022/08/24 08:26:21;;;;;;;3.40;3.10;;;;;;;;;;5050471;28;20076;-69
2022/08/24 08:29:06;;;;;;;3.65;2.70;;;;;;;;;;5060154;28;20143;-69
2022/08/24 08:31:36;;;;;;;3.20;2.90;;;;;;;;;;5056580;28;20052;-69
2022/08/24 08:34:03;;;;;;;6.78;2.90;;;;;;;;;;5048996;28;20043;-70
2022/08/24 08:36:29;;;;;;;4.20;2.92;;;;;;;;;;5036885;28;20496;-71
2022/08/24 08:38:55;;;;;;;11.93;3.20;;;;;;;;;;5045673;28;20060;-70
2022/08/24 08:41:47;;;;;;;3.65;3.10;;;;;;;;;;5054901;28;20080;-68
2022/08/24 08:44:39;;;;;;;6.40;3.22;;;;;;;;;;5037276;28;20103;-68
2022/08/24 08:47:34;;;;;;;4.50;3.53;;;;;;;;;;5064363;28;20043;-68
2022/08/24 08:50:15;;;;;;;4.13;3.45;;;;;;;;;;5025426;28;20091;-68
2022/08/24 08:53:15;;;;;;;3.10;2.77;;;;;;;;;;5050286;28;20132;-68
2022/08/24 08:55:46;;;;;;;6.03;3.55;;;;;;;;;;5041593;28;20056;-68
2022/08/24 08:58:37;;;;;;;5.45;3.47;;;;;;;;;;5043137;28;20090;-68
2022/08/24 09:01:14;;;;;;;5.75;3.10;;;;;;;;;;5042197;28;20480;-70
2022/08/24 09:03:48;;;;;;;4.95;3.10;;;;;;;;;;5060462;28;20068;-69
2022/08/24 09:07:18;;;;;;;2.83;2.55;;;;;;;;;;5037762;28;20051;-68
2022/08/24 09:10:08;;;;;;;4.32;2.83;;;;;;;;;;5011524;28;20500;-68
2022/08/24 09:12:59;;;;;;;3.85;2.90;;;;;;;;;;5055139;28;20126;-68
2022/08/24 09:15:37;;;;;;;3.10;2.30;;;;;;;;;;5044209;28;20052;-68
2022/08/24 09:18:21;;;;;;;3.60;2.60;;;;;;;;;;5033740;28;20045;-68
2022/08/24 09:21:09;;;;;;;2.88;2.60;;;;;;;;;;5041046;28;20041;-68
2022/08/24 09:23:53;;;;;;;4.88;2.58;;;;;;;;;;5042500;28;20504;-67
2022/08/24 09:26:27;;;;;;;3.28;2.50;;;;;;;;;;5043412;28;20573;-69
2022/08/24 09:29:17;;;;;;;3.40;2.20;;;;;;;;;;5033360;28;20120;-69
2022/08/24 09:31:50;;;;;;;4.05;2.30;;;;;;;;;;5038403;28;20098;-70
2022/08/24 09:34:21;;;;;;;2.63;2.08;;;;;;;;;;5041322;28;20472;-70
2022/08/24 09:36:53;;;;;;;4.28;2.20;;;;;;;;;;5040950;28;20052;-69
2022/08/24 09:39:33;;;;;;;3.65;2.13;;;;;;;;;;5040373;28;20045;-69
2022/08/24 09:42:05;;;;;;;3.53;2.45;;;;;;;;;;5044458;28;20045;-72
2022/08/24 09:44:49;;;;;;;6.47;2.25;;;;;;;;;;5046436;28;20445;-70
2022/08/24 09:47:33;;;;;;;3.42;2.28;;;;;;;;;;5040119;28;20129;-71
2022/08/24 09:50:25;;;;;;;3.30;2.10;;;;;;;;;;5031199;28;20044;-71
2022/08/24 09:53:22;;;;;;;2.80;2.15;;;;;;;;;;5036975;28;20472;-71
2022/08/24 09:55:59;;;;;;;2.28;2.08;;;;;;;;;;5041383;28;20503;-71
2022/08/24 09:58:56;;;;;;;2.20;1.90;;;;;;;;;;5038049;28;20122;-71
2022/08/24 10:01:33;;;;;;;2.70;1.92;;;;;;;;;;5036239;28;20506;-71
2022/08/24 10:04:22;;;;;;;4.50;2.00;;;;;;;;;;5038987;28;20076;-73
2022/08/24 10:07:12;;;;;;;2.67;2.28;;;;;;;;;;5040453;28;20487;-71
2022/08/24 10:09:44;;;;;;;2.25;2.00;;;;;;;;;;5045276;28;20510;-70
2022/08/24 10:12:24;;;;;;;3.95;2.45;;;;;;;;;;5036010;28;20044;-71
2022/08/24 10:14:50;;;;;;;2.33;2.13;;;;;;;;;;5047439;28;20044;-72
2022/08/24 10:17:24;;;;;;;3.15;2.15;;;;;;;;;;5044797;28;20400;-69
2022/08/24 10:20:11;;;;;;;3.22;2.50;;;;;;;;;;5070078;28;20049;-71
2022/08/24 10:23:00;;;;;;;3.22;2.15;;;;;;;;;;5069785;28;20044;-71
2022/08/24 10:25:48;;;;;;;7.22;2.40;;;;;;;;;;5069292;28;20057;-72
2022/08/24 10:28:38;;;;;;;2.83;2.60;;;;;;;;;;5059671;28;20049;-72
2022/08/24 10:31:08;;;;;;;7.75;2.33;;;;;;;;;;5057313;28;20056;-69
2022/08/24 10:33:55;;;;;;;3.87;2.30;;;;;;;;;;5049958;28;20508;-68
2022/08/24 10:36:35;;;;;;;3.92;2.20;;;;;;;;;;5038516;28;20721;-70
2022/08/24 10:39:42;;;;;;;2.58;2.10;;;;;;;;;;5036373;28;20049;-70
2022/08/24 10:45:34;;;;;;;2.53;2.20;;;;;;;;;;5067566;28;20058;-68
2022/08/24 10:48:30;;;;;;;5.75;2.08;;;;;;;;;;5048509;28;20053;-69
2022/08/24 10:51:30;;;;;;;4.40;2.30;;;;;;;;;;5048443;28;20041;-68
2022/08/24 10:53:57;;;;;;;6.15;2.25;;;;;;;;;;5047817;28;20048;-68
2022/08/24 10:56:38;;;;;;;2.75;1.58;;;;;;;;;;5070135;28;20049;-69
2022/08/24 10:59:29;;;;;;;2.65;1.85;;;;;;;;;;5053541;28;20049;-69
2022/08/24 11:02:00;;;;;;;;;;;;;;;;;;5047288;28;20049;-68
2022/08/24 11:04:29;;;;;;;5.10;2.00;;;;;;;;;;5041019;28;20019;-68
2022/08/24 11:07:13;;;;;;;2.22;1.60;;;;;;;;;;5036054;28;20041;-70
2022/08/24 11:09:46;;;;;;;2.60;1.70;;;;;;;;;;5043564;28;20049;-71
2022/08/24 11:12:17;;;;;;;2.20;1.65;;;;;;;;;;5037837;28;20488;-70
2022/08/24 11:14:46;;;;;;;1.52;1.42;;;;;;;;;;5041475;28;20125;-70
2022/08/24 11:17:15;;;;;;;2.38;1.63;;;;;;;;;;5035368;28;20052;-69
2022/08/24 11:19:41;;;;;;;4.10;2.20;;;;;;;;;;5036806;28;20504;-69
2022/08/24 11:22:35;;;;;;;3.67;1.75;;;;;;;;;;5039836;28;20045;-70
2022/08/24 11:25:12;;;;;;;1.67;1.50;;;;;;;;;;5040550;28;20527;-68
2022/08/24 11:27:42;;;;;;;1.80;1.70;;;;;;;;;;5045780;28;20056;-70
2022/08/24 11:30:16;;;;;;;1.90;1.80;;;;;;;;;;5033167;28;20044;-70
2022/08/24 11:32:55;;;;;;;2.60;2.05;;;;;;;;;;5032340;28;20045;-70
2022/08/24 11:35:23;;;;;;;1.85;1.70;;;;;;;;;;5045140;28;20153;-71
2022/08/24 11:37:51;;;;;;;2.95;1.83;;;;;;;;;;5053200;28;20114;-70
2022/08/24 11:40:20;;;;;;;2.10;1.90;;;;;;;;;;5040595;28;20073;-71
2022/08/24 11:43:22;;;;;;;2.67;1.67;;;;;;;;;;5040740;28;20053;-70
2022/08/24 11:45:50;;;;;;;2.00;1.80;;;;;;;;;;5039420;28;20080;-69
2022/08/24 11:48:27;;;;;;;4.05;1.60;;;;;;;;;;5060294;28;20071;-71
2022/08/24 11:51:12;;;;;;;4.80;1.48;;;;;;;;;;5036471;28;20076;-71
2022/08/24 11:54:04;;;;;;;3.10;1.63;;;;;;;;;;5043910;28;20037;-71
2022/08/24 11:56:44;;;;;;;3.58;1.98;;;;;;;;;;5044056;28;20044;-69
2022/08/24 11:59:35;;;;;;;2.03;1.85;;;;;;;;;;5053707;28;20083;-68
2022/08/24 12:02:10;;;;;;;3.10;1.90;;;;;;;;;;5032746;28;20055;-69
2022/08/24 12:04:47;;;;;;;2.65;1.88;;;;;;;;;;5049115;28;20396;-69
2022/08/24 12:07:25;;;;;;;2.95;1.70;;;;;;;;;;5035522;28;20134;-70
2022/08/24 12:10:00;;;;;;;2.40;1.73;;;;;;;;;;5044092;28;20056;-69
2022/08/24 12:12:34;;;;;;;2.70;1.85;;;;;;;;;;5042834;28;20036;-69
2022/08/24 12:15:14;;;;;;;2.70;1.60;;;;;;;;;;5044754;28;20412;-70
2022/08/24 12:17:49;;;;;;;3.90;1.70;;;;;;;;;;5036930;28;20055;-69
2022/08/24 12:20:21;;;;;;;2.88;1.90;;;;;;;;;;5038753;28;20796;-70
2022/08/24 12:22:48;;;;;;;3.20;1.70;;;;;;;;;;5036645;28;20068;-69
2022/08/24 12:27:59;;;;;;;2.38;1.65;;;;;;;;;;5028935;28;20041;-70
2022/08/24 12:30:26;;;;;;;2.00;1.80;;;;;;;;;;5045200;28;20052;-71
2022/08/24 12:33:02;;;;;;;1.92;1.77;;;;;;;;;;5046893;28;20063;-70
2022/08/24 12:35:51;;;;;;;1.95;1.75;;;;;;;;;;5043779;28;20511;-71
2022/08/24 12:38:46;;;;;;;3.25;1.70;;;;;;;;;;5041318;28;20128;-69
2022/08/24 12:41:25;;;;;;;2.33;1.70;;;;;;;;;;5042204;28;20041;-69
2022/08/24 12:44:13;;;;;;;3.45;1.65;;;;;;;;;;5043141;28;20060;-70
2022/08/24 12:46:42;;;;;;;1.88;1.67;;;;;;;;;;5035244;28;20037;-70
2022/08/24 12:49:21;;;;;;;1.90;1.70;;;;;;;;;;5035837;28;20037;-69
2022/08/24 12:52:09;;;;;;;3.40;1.67;;;;;;;;;;5043378;28;20060;-70
2022/08/24 12:54:53;;;;;;;6.93;1.60;;;;;;;;;;5046438;28;20052;-70
2022/08/24 12:57:43;;;;;;;5.32;1.55;;;;;;;;;;5049227;28;20041;-69
2022/08/24 13:00:20;;;;;;;4.53;1.52;;;;;;;;;;5045384;28;20083;-69
2022/08/24 13:02:55;;;;;;;2.05;1.30;;;;;;;;;;5041073;28;20048;-71
2022/08/24 13:05:22;;;;;;;1.40;1.20;;;;;;;;;;5066405;28;20036;-70
2022/08/24 13:07:50;;;;;;;6.50;1.52;;;;;;;;;;5064543;28;20506;-69
2022/08/24 13:10:24;;;;;;;2.97;1.50;;;;;;;;;;5042608;28;20049;-70
2022/08/24 13:13:03;;;;;;;5.43;1.67;;;;;;;;;;5048342;28;20037;-72
2022/08/24 13:15:29;;;;;;;4.63;1.70;;;;;;;;;;5049948;28;20416;-69
2022/08/24 13:17:58;;;;;;;1.70;1.60;;;;;;;;;;5050414;28;20556;-69
2022/08/24 13:20:36;;;;;;;3.58;1.45;;;;;;;;;;5049188;28;20127;-69
2022/08/24 13:23:10;;;;;;;4.13;1.88;;;;;;;;;;5042087;28;20045;-69
2022/08/24 13:25:50;;;;;;;2.15;1.60;;;;;;;;;;5055423;28;20051;-69
2022/08/24 13:28:22;;;;;;;4.05;1.98;;;;;;;;;;5070011;28;20044;-69
2022/08/24 13:30:50;;;;;;;2.13;1.60;;;;;;;;;;5063630;28;20088;-69
2022/08/24 13:33:16;;;;;;;1.98;1.80;;;;;;;;;;5047237;28;20462;-70
2022/08/24 13:36:02;;;;;;;4.45;1.75;;;;;;;;;;5044734;28;20136;-69
2022/08/24 13:38:33;;;;;;;5.55;2.08;;;;;;;;;;5052508;28;20055;-70
2022/08/24 13:41:05;;;;;;;2.78;1.90;;;;;;;;;;5063750;28;20049;-70
2022/08/24 13:43:41;;;;;;;2.20;1.80;;;;;;;;;;5049202;28;20055;-69
2022/08/24 13:46:18;;;;;;;1.85;1.70;;;;;;;;;;5048279;28;20114;-69
2022/08/24 13:49:11;;;;;;;1.70;1.50;;;;;;;;;;5049054;28;20065;-70
2022/08/24 13:52:05;;;;;;;2.88;1.60;;;;;;;;;;5029443;28;20140;-70
2022/08/24 13:54:59;;;;;;;1.60;1.50;;;;;;;;;;5033616;28;20041;-70
2022/08/24 13:57:50;;;;;;;1.92;1.80;;;;;;;;;;5017801;28;20041;-70
2022/08/24 14:00:49;;;;;;;1.75;1.65;;;;;;;;;;5054079;28;20041;-72
2022/08/24 14:03:17;;;;;;;1.40;1.30;;;;;;;;;;5025302;28;20111;-72
2022/08/24 14:05:52;;;;;;;2.35;1.73;;;;;;;;;;5036861;28;20143;-73
2022/08/24 14:08:44;;;;;;;1.88;1.73;;;;;;;;;;5048053;28;20136;-71
2022/08/24 14:11:24;;;;;;;1.80;1.48;;;;;;;;;;5067975;28;20049;-74
2022/08/24 14:14:06;;;;;;;1.95;1.80;;;;;;;;;;5070168;28;20051;-70
2022/08/24 14:20:18;;;;;;;3.85;2.05;;;;;;;;;;4995253;28;20450;-70
2022/08/24 14:23:11;;;;;;;1.70;1.60;;;;;;;;;;5069917;28;20048;-71
2022/08/24 14:25:37;;;;;;;2.20;1.75;;;;;;;;;;5037816;28;20044;-71
2022/08/24 14:28:31;;;;;;;3.13;1.70;;;;;;;;;;5027140;28;20403;-71
2022/08/24 14:31:11;;;;;;;3.22;1.55;;;;;;;;;;5043024;28;20075;-73
2022/08/24 14:33:56;;;;;;;1.75;1.60;;;;;;;;;;5054180;28;20047;-72
2022/08/24 14:36:40;;;;;;;1.50;1.40;;;;;;;;;;5068185;28;20592;-70
2022/08/24 14:39:34;;;;;;;1.65;1.20;;;;;;;;;;5066581;28;20048;-70
2022/08/24 14:42:44;;;;;;;4.63;1.30;;;;;;;;;;5018127;28;20061;-71
2022/08/24 14:45:17;;;;;;;3.42;1.50;;;;;;;;;;5064471;28;20041;-71
2022/08/24 14:48:16;;;;;;;5.28;1.25;;;;;;;;;;5049562;28;20048;-69
2022/08/24 14:51:00;;;;;;;2.53;1.30;;;;;;;;;;5049902;28;20131;-70
2022/08/24 14:53:49;;;;;;;4.15;1.70;;;;;;;;;;5051536;28;20056;-69
2022/08/24 14:56:27;;;;;;;2.30;1.65;;;;;;;;;;5069611;28;20048;-70
2022/08/24 14:59:11;;;;;;;2.03;1.60;;;;;;;;;;5069665;28;20075;-70
2022/08/24 15:01:40;;;;;;;1.30;1.20;;;;;;;;;;5055904;28;20056;-70
2022/08/24 15:04:35;;;;;;;6.80;1.35;;;;;;;;;;5057542;28;20114;-70
2022/08/24 15:07:24;;;;;;;2.15;1.50;;;;;;;;;;5069760;28;20193;-70
2022/08/24 15:09:51;;;;;;;1.70;1.20;;;;;;;;;;5068097;28;20055;-71
2022/08/24 15:12:30;;;;;;;1.60;1.50;;;;;;;;;;5069625;28;20455;-70
2022/08/24 15:15:14;;;;;;;3.13;1.38;;;;;;;;;;5052482;28;20056;-70
2022/08/24 15:18:16;;;;;;;1.30;1.20;;;;;;;;;;5048176;28;20075;-69
2022/08/24 15:21:01;;;;;;;1.45;1.33;;;;;;;;;;5049364;28;20417;-70
2022/08/24 15:23:41;;;;;;;1.77;1.20;;;;;;;;;;5048427;28;20043;-70
2022/08/24 15:26:16;;;;;;;1.50;1.38;;;;;;;;;;5049588;28;20131;-70
2022/08/24 15:28:48;;;;;;;1.30;1.20;;;;;;;;;;5069398;28;20071;-73
2022/08/24 15:31:19;;;;;;;4.10;1.20;;;;;;;;;;5059183;28;20056;-70
2022/08/24 15:33:56;;;;;;;1.40;1.30;;;;;;;;;;5048354;28;20133;-74
2022/08/24 15:36:23;;;;;;;1.20;1.10;;;;;;;;;;5055343;28;20049;-71
2022/08/24 15:38:48;;;;;;;2.88;1.20;;;;;;;;;;5063953;28;20043;-71